Portada
METAR-TAF:

METAR-TAF

Aeropuertos :

Kermán, Irán

latitud: 30-15N, longitud: 056-58E, altitud: 1748 m

Observación

El informe se hizo hace 48 minutos, a las 02:00 UTC
Viento 4 kt del sureste
Temperatura -2°C
Humedad 93%
Presión 1023 hPa
Visibilidad 10 km o más
sin nubes por debajo de 1500 m y sin presencia de cumulonimbus.

METAR: OIKK 250200Z 14004KT CAVOK M02/M03 Q1023 A3022

Hora: 06:18 (02:48 UTC)

Pronóstico

El informe se hizo hace 3 horas y 48 minutos, a las 23:00 UTC
Pronóstico válido del 25 a las 00 UTC al 26 a las 06 UTC
Viento 8 kt del noroeste
Visibilidad: 9000 m
Escasas nubes a una altura de 3500 ft
Nubes dispersas a una altura de 10000 ft

TAF: OIKK 242300Z 2500/2606 32008KT 9000 FEW035 SCT100

Observaciones y pronósticos meteorológicos de más de 4000 aeropuertos (mensajes METAR y TAF).

Los puntos amarillos y rojos representan las estaciones disponibles.

Ponga el ratón en el punto deseado para ver el nombre de la estación.

Haga clic para ver las observaciones y los pronósticos meteorológicos.

Para cambiar el mapa : haga clic en los botones verdes con una cruz de color negro para hacer un zoom, en el botón verde con un guión para alejar o en las flechas verdes para mapas adyacentes.


METAR-TAF: